Time;durP1;ratioP1;P1;durP2;ratioP2;P2;SDS_P1;SDS_P2;PMS_P1;PMS_P2;Temp;Humidity;BMP_temperature;BMP_pressure;BME280_temperature;BME280_humidity;BME280_pressure;Samples;Min_cycle;Max_cycle;Signal;HPM_P1;HPM_P2
2021/01/28 00:01:39;;;;;;;3.80;2.53;;;;;;;3.77;100.00;98194.11;1711700;82;21048;-70
2021/01/28 00:04:07;;;;;;;5.63;2.67;;;;;;;3.74;100.00;98193.96;1737111;82;21016;-70
2021/01/28 00:06:37;;;;;;;4.73;1.90;;;;;;;3.72;100.00;98199.13;1709167;84;21117;-70
2021/01/28 00:09:05;;;;;;;4.50;2.17;;;;;;;3.70;100.00;98198.00;1711613;83;21041;-70
2021/01/28 00:11:35;;;;;;;2.33;2.07;;;;;;;3.68;100.00;98192.47;1737084;82;21214;-70
2021/01/28 00:14:03;;;;;;;4.40;2.30;;;;;;;3.67;100.00;98196.17;1737125;82;20933;-70
2021/01/28 00:16:31;;;;;;;3.80;2.50;;;;;;;3.67;100.00;98192.16;1737146;82;20961;-70
2021/01/28 00:18:59;;;;;;;2.97;2.33;;;;;;;3.67;100.00;98188.15;1739141;81;21783;-71
2021/01/28 00:21:27;;;;;;;3.33;2.17;;;;;;;3.66;100.00;98185.13;1743542;82;21044;-70
2021/01/28 00:23:55;;;;;;;1.97;1.60;;;;;;;3.66;100.00;98184.63;1743713;82;21079;-70
2021/01/28 00:26:23;;;;;;;2.87;1.93;;;;;;;3.64;100.00;98175.95;1747256;81;20992;-71
2021/01/28 00:28:51;;;;;;;2.80;2.60;;;;;;;3.63;100.00;98178.30;1773514;81;21111;-70
2021/01/28 00:31:19;;;;;;;2.50;2.17;;;;;;;3.63;100.00;98165.42;1773689;81;22288;-70
2021/01/28 00:33:47;;;;;;;5.73;2.57;;;;;;;3.63;100.00;98170.29;1772282;81;21600;-70
2021/01/28 00:36:15;;;;;;;4.80;2.23;;;;;;;3.61;100.00;98159.77;1772404;81;20982;-70
2021/01/28 00:38:43;;;;;;;2.17;1.70;;;;;;;3.60;100.00;98158.59;1742095;82;21546;-70
2021/01/28 00:41:13;;;;;;;4.37;2.37;;;;;;;3.59;100.00;98155.10;1760275;81;20997;-70
2021/01/28 00:43:40;;;;;;;5.70;2.43;;;;;;;3.60;100.00;98153.25;1742099;82;21038;-70
2021/01/28 00:46:09;;;;;;;4.57;2.10;;;;;;;3.57;100.00;98154.41;1763871;81;20993;-70
2021/01/28 00:48:38;;;;;;;4.70;2.27;;;;;;;3.57;100.00;98157.09;1742239;81;21592;-70
2021/01/28 00:51:06;;;;;;;3.97;2.23;;;;;;;3.56;100.00;98167.94;1763973;81;21557;-70
2021/01/28 00:53:34;;;;;;;4.80;2.50;;;;;;;3.57;100.00;98162.95;1742124;82;20984;-70
2021/01/28 00:56:02;;;;;;;3.13;2.07;;;;;;;3.58;100.00;98152.59;1764028;81;21268;-70
2021/01/28 00:58:38;;;;;;;3.73;2.33;;;;;;;3.59;100.00;98154.24;1737874;82;20964;-69
2021/01/28 01:01:06;;;;;;;2.77;1.70;;;;;;;3.57;100.00;98151.74;1764083;81;21613;-69
2021/01/28 01:03:34;;;;;;;1.97;1.87;;;;;;;3.58;100.00;98144.58;1742264;82;21007;-69
2021/01/28 01:06:02;;;;;;;4.63;2.73;;;;;;;3.57;100.00;98145.06;1764178;81;21033;-70
2021/01/28 01:08:32;;;;;;;2.87;2.37;;;;;;;3.56;100.00;98132.72;1742311;82;21174;-69
2021/01/28 01:11:10;;;;;;;4.60;2.30;;;;;;;3.57;100.00;98122.34;1760370;81;21187;-70
2021/01/28 01:13:39;;;;;;;6.83;2.97;;;;;;;3.57;100.00;98114.84;1715073;82;21000;-69
2021/01/28 01:16:11;;;;;;;6.40;2.77;;;;;;;3.57;100.00;98108.98;1760362;81;21026;-69
2021/01/28 01:18:41;;;;;;;9.17;3.17;;;;;;;3.57;100.00;98104.15;1744816;81;20930;-70
2021/01/28 01:21:09;;;;;;;2.93;1.73;;;;;;;3.59;100.00;98106.14;1746529;81;21405;-69
2021/01/28 01:23:37;;;;;;;4.30;2.23;;;;;;;3.59;100.00;98102.98;1746303;82;21029;-70
2021/01/28 01:26:12;;;;;;;4.37;2.70;;;;;;;3.60;100.00;98096.62;1741914;82;21602;-70
2021/01/28 01:28:41;;;;;;;3.97;1.80;;;;;;;3.59;100.00;98077.59;1770996;81;20904;-72
2021/01/28 01:31:10;;;;;;;3.50;2.13;;;;;;;3.60;100.00;98073.90;1739619;82;21670;-71
2021/01/28 01:33:48;;;;;;;2.50;2.10;;;;;;;3.67;100.00;98101.28;1855083;76;27113;-72
2021/01/28 01:36:16;;;;;;;5.10;2.60;;;;;;;3.66;100.00;98137.02;1827356;76;21044;-71
2021/01/28 01:38:48;;;;;;;2.12;1.92;;;;;;;3.66;100.00;98144.53;1803075;78;21763;-71
2021/01/28 01:41:16;;;;;;;4.17;2.13;;;;;;;3.66;100.00;98147.20;1793922;80;20993;-70
2021/01/28 01:43:46;;;;;;;3.17;1.60;;;;;;;3.67;100.00;98148.05;1793976;80;21624;-71
2021/01/28 01:46:21;;;;;;;3.83;2.30;;;;;;;3.70;100.00;98139.66;1889842;76;27187;-71
2021/01/28 01:48:53;;;;;;;4.80;3.00;;;;;;;3.68;100.00;98155.05;1860700;77;20931;-71
2021/01/28 01:51:37;;;;;;;3.33;2.57;;;;;;;3.67;100.00;98137.36;1860776;77;21249;-72
2021/01/28 01:54:11;;;;;;;2.70;2.10;;;;;;;3.66;100.00;98141.03;1855641;77;20947;-69
2021/01/28 01:56:52;;;;;;;5.13;2.67;;;;;;;3.64;100.00;98137.19;1856282;77;20928;-70
2021/01/28 01:59:34;;;;;;;5.17;2.57;;;;;;;3.64;100.00;98134.52;1826546;78;21663;-71
2021/01/28 02:02:14;;;;;;;3.90;2.47;;;;;;;3.67;100.00;98126.16;1845298;76;27035;-71
2021/01/28 02:05:17;;;;;;;3.57;2.27;;;;;;;3.63;100.00;98118.65;1810932;79;20960;-69
2021/01/28 02:07:47;;;;;;;3.37;2.00;;;;;;;3.61;100.00;98122.83;1699024;82;21481;-70
2021/01/28 02:10:24;;;;;;;3.37;2.00;;;;;;;3.61;100.00;98126.84;1695666;82;21043;-69
2021/01/28 02:13:08;;;;;;;6.50;2.90;;;;;;;3.60;100.00;98123.34;1695639;84;21023;-70
2021/01/28 02:15:40;;;;;;;8.57;2.53;;;;;;;3.58;100.00;98116.52;1695535;82;21526;-70
2021/01/28 02:18:08;;;;;;;7.73;3.03;;;;;;;3.57;100.00;98113.50;1698846;84;21008;-70
2021/01/28 02:21:08;;;;;;;3.30;1.90;;;;;;;3.60;100.00;98099.80;1845324;76;26551;-71
2021/01/28 02:24:12;;;;;;;8.10;3.83;;;;;;;3.59;100.00;98090.11;1829154;76;27865;-71
2021/01/28 02:26:45;;;;;;;4.17;2.27;;;;;;;3.59;100.00;98107.47;1825942;77;20962;-70
2021/01/28 02:29:26;;;;;;;5.73;3.27;;;;;;;3.60;100.00;98105.15;1843532;77;22660;-70
2021/01/28 02:31:54;;;;;;;6.17;3.03;;;;;;;3.58;100.00;98106.66;1797547;79;21035;-71
2021/01/28 02:34:24;;;;;;;4.67;2.87;;;;;;;3.56;100.00;98114.02;1756609;80;21130;-71
2021/01/28 02:37:17;;;;;;;4.70;2.27;;;;;;;3.57;100.00;98099.62;1845226;76;26673;-71
2021/01/28 02:39:55;;;;;;;6.80;2.80;;;;;;;3.56;100.00;98101.98;1889902;75;26639;-71
2021/01/28 02:42:29;;;;;;;5.67;3.03;;;;;;;3.51;100.00;98101.67;1786104;80;20926;-71
2021/01/28 02:45:06;;;;;;;6.13;3.47;;;;;;;3.49;100.00;98102.84;1806712;79;21381;-71
2021/01/28 02:47:56;;;;;;;5.17;2.70;;;;;;;3.48;100.00;98105.20;1811532;78;21031;-69
2021/01/28 02:50:44;;;;;;;2.73;2.13;;;;;;;3.46;100.00;98124.06;1669912;81;20965;-70
2021/01/28 02:53:13;;;;;;;3.73;2.40;;;;;;;3.44;100.00;98130.09;1669685;86;21049;-70
2021/01/28 02:55:42;;;;;;;5.40;3.10;;;;;;;3.43;100.00;98133.75;1716494;83;21016;-70
2021/01/28 02:58:11;;;;;;;6.10;3.70;;;;;;;3.42;100.00;98132.94;1669797;86;21601;-70
2021/01/28 03:00:43;;;;;;;7.47;3.70;;;;;;;3.41;100.00;98137.11;1666551;86;21060;-71
2021/01/28 03:03:13;;;;;;;5.07;2.73;;;;;;;3.39;100.00;98135.11;1669859;86;21041;-70
2021/01/28 03:05:52;;;;;;;5.17;3.50;;;;;;;3.38;100.00;98137.45;1669721;86;21103;-69
2021/01/28 03:08:22;;;;;;;7.90;3.50;;;;;;;3.36;100.00;98137.61;1716525;83;21045;-70
2021/01/28 03:10:53;;;;;;;5.90;4.07;;;;;;;3.35;100.00;98143.16;1669976;86;21659;-71
2021/01/28 03:13:23;;;;;;;4.97;3.13;;;;;;;3.33;100.00;98143.32;1669788;86;21526;-70
2021/01/28 03:15:57;;;;;;;5.17;3.08;;;;;;;3.32;100.00;98128.80;1716735;83;21024;-71
2021/01/28 03:18:26;;;;;;;3.80;2.87;;;;;;;3.30;100.00;98126.29;1669795;86;21092;-71
2021/01/28 03:20:56;;;;;;;4.57;2.83;;;;;;;3.29;100.00;98121.94;1669615;86;20937;-71
2021/01/28 03:23:28;;;;;;;6.13;3.20;;;;;;;3.27;100.00;98114.61;1716600;83;22613;-70
2021/01/28 03:26:38;;;;;;;6.87;3.23;;;;;;;3.28;100.00;98112.28;1882516;76;27351;-71
2021/01/28 03:29:07;;;;;;;6.30;3.53;;;;;;;3.22;100.00;98120.48;1790961;78;20890;-71
2021/01/28 03:31:37;;;;;;;6.87;3.13;;;;;;;3.20;100.00;98126.98;1823859;77;22342;-72
2021/01/28 03:34:05;;;;;;;6.23;3.40;;;;;;;3.18;100.00;98115.64;1811922;79;21021;-71
2021/01/28 03:36:33;;;;;;;8.97;4.20;;;;;;;3.15;100.00;98112.83;1824242;78;21055;-72
2021/01/28 03:39:05;;;;;;;7.13;3.53;;;;;;;3.12;100.00;98123.02;1826970;78;20992;-72
2021/01/28 03:41:34;;;;;;;5.70;4.00;;;;;;;3.08;100.00;98118.52;1826986;78;20929;-72
2021/01/28 03:44:04;;;;;;;10.37;4.20;;;;;;;3.05;100.00;98121.52;1826847;78;21423;-72
2021/01/28 03:46:32;;;;;;;6.33;3.77;;;;;;;3.01;100.00;98121.02;1792871;78;20948;-71
2021/01/28 03:49:00;;;;;;;3.93;2.63;;;;;;;2.97;100.00;98106.84;1826953;78;21035;-71
2021/01/28 03:51:33;;;;;;;;;;;;;;;2.94;100.00;98110.70;1691283;84;21040;-72
2021/01/28 03:54:14;;;;;;;7.87;3.73;;;;;;;2.96;100.00;98104.68;1845386;76;26726;-72
2021/01/28 03:56:46;;;;;;;8.63;3.33;;;;;;;2.91;100.00;98105.69;1811214;79;21569;-71
2021/01/28 03:59:14;;;;;;;6.07;3.37;;;;;;;2.88;100.00;98110.53;1815555;79;21144;-72
2021/01/28 04:01:43;;;;;;;3.50;2.80;;;;;;;2.84;100.00;98102.03;1811077;79;20932;-71
2021/01/28 04:04:29;;;;;;;5.77;3.47;;;;;;;2.83;100.00;98103.02;1815788;79;21004;-71
2021/01/28 04:07:15;;;;;;;4.77;3.07;;;;;;;2.82;100.00;98109.38;1815376;77;20991;-71
2021/01/28 04:09:45;;;;;;;6.17;3.13;;;;;;;2.79;100.00;98119.88;1815086;78;20972;-71
2021/01/28 04:12:15;;;;;;;8.07;3.13;;;;;;;2.78;100.00;98127.56;1810683;79;21301;-70
2021/01/28 04:14:53;;;;;;;5.73;3.33;;;;;;;2.77;100.00;98132.56;1699123;82;21117;-71
2021/01/28 04:17:21;;;;;;;10.90;4.83;;;;;;;2.76;100.00;98130.91;1698731;84;21095;-71
2021/01/28 04:19:53;;;;;;;6.73;3.70;;;;;;;2.74;100.00;98138.22;1695248;84;21096;-71
2021/01/28 04:22:21;;;;;;;5.37;2.93;;;;;;;2.72;100.00;98126.89;1699179;84;20982;-70
2021/01/28 04:24:50;;;;;;;5.60;3.47;;;;;;;2.71;100.00;98127.05;1698684;84;21374;-70
2021/01/28 04:27:18;;;;;;;7.80;3.60;;;;;;;2.69;100.00;98131.73;1722172;82;21601;-71
2021/01/28 04:29:58;;;;;;;10.10;3.57;;;;;;;2.71;100.00;98127.05;1779230;79;26782;-71
2021/01/28 04:32:28;;;;;;;7.43;3.73;;;;;;;2.65;100.00;98119.22;1746153;82;21010;-71
2021/01/28 04:35:14;;;;;;;10.70;4.07;;;;;;;2.66;100.00;98124.91;1749723;82;21395;-70
2021/01/28 04:37:43;;;;;;;5.27;3.63;;;;;;;2.63;100.00;98119.38;1749747;82;21598;-69
2021/01/28 04:40:31;;;;;;;4.77;3.10;;;;;;;2.62;100.00;98133.74;1683959;85;21579;-70
2021/01/28 04:43:07;;;;;;;5.33;3.57;;;;;;;2.61;100.00;98135.24;1686790;85;20966;-71
2021/01/28 04:45:34;;;;;;;6.77;3.57;;;;;;;2.60;100.00;98137.56;1690725;84;21009;-71
2021/01/28 04:48:05;;;;;;;10.30;4.83;;;;;;;2.60;100.00;98161.58;1687769;85;22046;-71
2021/01/28 04:50:52;;;;;;;3.27;2.80;;;;;;;2.58;100.00;98140.39;1699009;84;21594;-71
2021/01/28 04:53:36;;;;;;;6.33;3.40;;;;;;;2.58;100.00;98155.58;1636151;85;20974;-71
2021/01/28 04:56:15;;;;;;;7.50;3.40;;;;;;;2.57;100.00;98168.09;1660673;86;21623;-72
2021/01/28 04:58:44;;;;;;;6.75;3.77;;;;;;;2.60;100.00;98161.58;1685660;85;21018;-72
2021/01/28 05:01:14;;;;;;;7.17;3.63;;;;;;;2.60;100.00;98150.91;1662785;86;21954;-72
2021/01/28 05:04:05;;;;;;;5.67;3.00;;;;;;;2.58;100.00;98149.73;1714660;83;21744;-71
2021/01/28 05:06:54;;;;;;;4.87;3.07;;;;;;;2.61;100.00;98137.40;1845254;76;26833;-71
2021/01/28 05:09:36;;;;;;;5.10;3.47;;;;;;;2.57;100.00;98136.59;1699190;82;21113;-72
2021/01/28 05:12:11;;;;;;;7.00;4.33;;;;;;;2.56;100.00;98127.72;1695627;82;21385;-72
2021/01/28 05:15:27;;;;;;;8.73;4.27;;;;;;;2.57;100.00;98128.07;1845302;76;27071;-72
2021/01/28 05:18:36;;;;;;;12.80;4.60;;;;;;;2.54;100.00;98137.73;1731504;82;21006;-71
2021/01/28 05:21:23;;;;;;;4.77;3.13;;;;;;;2.53;100.00;98148.56;1731468;82;21139;-72
2021/01/28 05:24:05;;;;;;;7.37;3.63;;;;;;;2.53;100.00;98141.39;1727855;82;20993;-73
2021/01/28 05:26:42;;;;;;;9.00;3.73;;;;;;;2.57;100.00;98145.41;1845162;77;27160;-72
2021/01/28 05:29:28;;;;;;;;;;;;;;;2.56;100.00;98156.25;1830699;78;20985;-72
2021/01/28 05:32:06;;;;;;;13.30;4.77;;;;;;;2.57;100.00;98161.94;1759195;80;21502;-71
2021/01/28 05:34:44;;;;;;;6.60;3.67;;;;;;;2.58;100.00;98138.23;1845222;76;27211;-73
2021/01/28 05:37:21;;;;;;;6.67;3.07;;;;;;;2.56;100.00;98150.41;1699023;82;21035;-72
2021/01/28 05:40:13;;;;;;;6.23;3.83;;;;;;;2.59;100.00;98139.91;1845201;76;27266;-72
2021/01/28 05:42:59;;;;;;;8.53;3.63;;;;;;;2.57;100.00;98145.41;1844776;76;27095;-72
2021/01/28 05:45:37;;;;;;;7.53;4.07;;;;;;;2.55;100.00;98171.44;1815329;79;20992;-72
2021/01/28 05:48:30;;;;;;;5.97;3.27;;;;;;;2.55;100.00;98177.25;1810660;79;22594;-72
2021/01/28 05:51:16;;;;;;;4.70;3.03;;;;;;;2.57;100.00;98185.95;1810758;79;21470;-72
2021/01/28 05:54:06;;;;;;;8.57;4.00;;;;;;;2.57;100.00;98172.61;1815405;79;20938;-72
2021/01/28 05:57:08;;;;;;;5.30;4.00;;;;;;;2.60;100.00;98174.92;1810474;79;20992;-72
2021/01/28 05:59:49;;;;;;;10.00;4.37;;;;;;;2.62;100.00;98176.92;1810804;79;20995;-72
2021/01/28 06:02:46;;;;;;;7.03;3.13;;;;;;;2.64;100.00;98161.09;1810925;79;21189;-71
2021/01/28 06:06:05;;;;;;;5.63;2.97;;;;;;;2.68;100.00;98160.77;1845265;76;26760;-71
2021/01/28 06:09:17;;;;;;;9.07;4.30;;;;;;;2.65;100.00;98176.59;1810813;78;21504;-71
2021/01/28 06:12:07;;;;;;;8.67;4.17;;;;;;;2.68;100.00;98174.94;1737105;82;21368;-75
2021/01/28 06:14:47;;;;;;;5.90;3.33;;;;;;;2.69;100.00;98163.24;1734967;82;21015;-70
2021/01/28 06:17:37;;;;;;;4.17;3.57;;;;;;;2.70;100.00;98164.92;1731015;82;21009;-69
2021/01/28 06:20:36;;;;;;;7.93;3.97;;;;;;;2.73;100.00;98160.59;1704001;84;21055;-74
2021/01/28 06:23:21;;;;;;;10.43;3.83;;;;;;;2.76;100.00;98170.09;1674616;85;21069;-73
2021/01/28 06:26:46;;;;;;;10.70;5.23;;;;;;;2.77;100.00;98175.27;1660458;86;21867;-75
2021/01/28 06:29:23;;;;;;;7.60;4.40;;;;;;;2.79;100.00;98177.77;1643855;87;21025;-76
2021/01/28 06:32:16;;;;;;;6.33;4.17;;;;;;;2.80;100.00;98179.45;1678117;83;21048;-74
2021/01/28 06:35:28;;;;;;;11.93;5.03;;;;;;;2.82;100.00;98176.11;1704195;84;21612;-75
2021/01/28 06:38:32;;;;;;;5.53;3.10;;;;;;;2.88;100.00;98178.60;1845210;76;27046;-75
2021/01/28 06:41:23;;;;;;;11.97;5.27;;;;;;;2.89;100.00;98193.13;1761392;79;21020;-74
2021/01/28 06:44:05;;;;;;;7.80;4.53;;;;;;;2.97;100.00;98166.91;1849522;76;26780;-76
2021/01/28 06:46:52;;;;;;;10.37;5.40;;;;;;;2.98;100.00;98192.63;1817326;78;20984;-74
2021/01/28 06:50:03;;;;;;;8.40;4.40;;;;;;;3.02;100.00;98197.95;1821690;78;21188;-75
2021/01/28 06:53:09;;;;;;;9.40;4.53;;;;;;;3.04;100.00;98204.78;1739010;80;21139;-76
2021/01/28 06:56:10;;;;;;;6.27;3.97;;;;;;;3.06;100.00;98191.26;1688951;84;21034;-75
2021/01/28 06:59:20;;;;;;;8.13;4.03;;;;;;;3.11;100.00;98196.94;1844703;76;26824;-75
2021/01/28 07:02:05;;;;;;;13.93;5.47;;;;;;;3.10;100.00;98209.11;1781876;79;20956;-76
2021/01/28 07:05:11;;;;;;;9.83;4.90;;;;;;;3.13;100.00;98214.12;1739393;81;21553;-75
2021/01/28 07:07:51;;;;;;;12.33;4.33;;;;;;;3.16;100.00;98222.64;1738966;82;21174;-76
2021/01/28 07:10:39;;;;;;;16.80;6.60;;;;;;;3.20;100.00;98229.81;1873664;76;27742;-74
2021/01/28 07:13:22;;;;;;;8.07;4.20;;;;;;;3.21;100.00;98235.50;1759865;81;21221;-74
2021/01/28 07:16:31;;;;;;;11.20;4.60;;;;;;;3.26;100.00;98249.67;1748426;81;22285;-74
2021/01/28 07:19:22;;;;;;;12.23;5.23;;;;;;;3.27;100.00;98250.02;1764920;81;21019;-74
2021/01/28 07:21:52;;;;;;;9.70;4.87;;;;;;;3.28;100.00;98257.04;1747486;81;21089;-73
2021/01/28 07:24:35;;;;;;;8.83;3.83;;;;;;;3.28;100.00;98255.19;1762147;81;21643;-73
2021/01/28 07:27:10;;;;;;;11.15;5.40;;;;;;;3.28;100.00;98260.53;1740428;82;21652;-72
2021/01/28 07:29:46;;;;;;;8.20;4.30;;;;;;;3.27;100.00;98261.52;1727358;83;21202;-74
2021/01/28 07:32:30;;;;;;;9.77;4.83;;;;;;;3.28;100.00;98263.72;1831710;76;26842;-74
2021/01/28 07:35:39;;;;;;;15.10;4.50;;;;;;;3.23;100.00;98260.20;1778824;80;21580;-74
2021/01/28 07:38:32;;;;;;;7.43;4.20;;;;;;;3.20;100.00;98256.52;1778048;80;21800;-77
2021/01/28 07:41:35;;;;;;;10.10;4.97;;;;;;;3.20;100.00;98261.86;1782028;80;21039;-78
2021/01/28 07:44:44;;;;;;;13.43;7.20;;;;;;;3.16;100.00;98242.67;1703365;83;21111;-73
2021/01/28 07:47:36;;;;;;;10.10;4.90;;;;;;;3.14;100.00;98245.19;1855177;76;26704;-74
2021/01/28 07:50:32;;;;;;;8.37;4.77;;;;;;;3.09;100.00;98263.03;1825992;78;21019;-72
2021/01/28 07:53:37;;;;;;;9.27;4.83;;;;;;;3.08;100.00;98250.70;1825310;78;22509;-75
2021/01/28 07:56:05;;;;;;;10.47;5.80;;;;;;;3.09;100.00;98249.68;1836714;77;20961;-77
2021/01/28 07:58:35;;;;;;;9.37;4.73;;;;;;;3.10;100.00;98237.16;1807607;77;21039;-78
2021/01/28 08:01:12;;;;;;;5.13;3.43;;;;;;;3.11;100.00;98241.51;1812830;77;21685;-77
2021/01/28 08:04:20;;;;;;;7.17;3.57;;;;;;;3.15;100.00;98249.51;1832907;77;21004;-77
2021/01/28 08:06:48;;;;;;;9.50;5.43;;;;;;;3.18;100.00;98231.31;1738583;82;21292;-77
2021/01/28 08:09:16;;;;;;;13.17;5.80;;;;;;;3.23;100.00;98246.33;1748819;82;21617;-79
2021/01/28 08:11:51;;;;;;;9.27;4.90;;;;;;;3.26;100.00;98239.84;1751351;80;20996;-77
2021/01/28 08:14:29;;;;;;;9.03;4.70;;;;;;;3.33;100.00;98229.29;1827420;76;26529;-80
2021/01/28 08:16:57;;;;;;;6.80;4.00;;;;;;;3.35;100.00;98230.80;1792765;79;21428;-80
2021/01/28 08:19:27;;;;;;;7.00;4.40;;;;;;;3.42;100.00;98220.28;1780603;79;21829;-79
2021/01/28 08:22:08;;;;;;;8.93;4.80;;;;;;;3.47;100.00;98216.60;1811137;79;21000;-74
2021/01/28 08:24:36;;;;;;;15.00;5.87;;;;;;;3.51;100.00;98211.23;1794371;79;21102;-77
2021/01/28 08:27:16;;;;;;;12.07;5.07;;;;;;;3.54;100.00;98204.70;1785538;79;21537;-77
2021/01/28 08:30:08;;;;;;;6.57;3.83;;;;;;;3.58;100.00;98198.03;1783385;80;21004;-79
2021/01/28 08:32:37;;;;;;;11.30;5.33;;;;;;;3.60;100.00;98191.49;1783294;78;21380;-79
2021/01/28 08:35:15;;;;;;;10.67;5.47;;;;;;;3.68;100.00;98201.83;1731915;82;21021;-76
2021/01/28 08:37:43;;;;;;;10.33;5.03;;;;;;;3.74;100.00;98205.98;1741943;81;20949;-75
2021/01/28 08:40:21;;;;;;;17.50;7.17;;;;;;;3.79;100.00;98193.45;1770659;79;21100;-76
2021/01/28 08:42:50;;;;;;;12.70;6.33;;;;;;;3.85;100.00;98201.28;1761505;81;21004;-80
2021/01/28 08:45:24;;;;;;;10.20;5.00;;;;;;;3.89;100.00;98203.41;1762649;81;21203;-79
2021/01/28 08:48:01;;;;;;;7.07;3.87;;;;;;;3.95;100.00;98196.56;1771488;79;20952;-80
2021/01/28 08:50:32;;;;;;;9.00;5.07;;;;;;;3.99;100.00;98204.56;1752902;81;21068;-79
2021/01/28 08:53:19;;;;;;;5.87;3.77;;;;;;;4.03;100.00;98214.41;1740816;82;21013;-80
2021/01/28 08:56:05;;;;;;;10.43;4.30;;;;;;;4.09;100.00;98219.90;1852455;76;27085;-75
2021/01/28 08:58:40;;;;;;;8.27;4.20;;;;;;;4.08;100.00;98226.76;1751454;82;20985;-78
2021/01/28 09:01:06;;;;;;;8.03;4.20;;;;;;;4.08;100.00;98224.91;1747239;82;21212;-82
2021/01/28 09:03:47;;;;;;;7.27;4.10;;;;;;;4.07;100.00;98224.59;1751018;82;21184;-77
2021/01/28 09:06:22;;;;;;;6.43;3.60;;;;;;;4.10;100.00;98232.25;1832110;77;26533;-78
2021/01/28 09:09:00;;;;;;;9.33;3.87;;;;;;;4.07;100.00;98250.48;1825313;77;21549;-83
2021/01/28 09:11:31;;;;;;;6.07;3.60;;;;;;;4.05;100.00;98257.85;1823014;77;21010;-77
2021/01/28 09:14:28;;;;;;;4.13;2.57;;;;;;;4.03;100.00;98267.38;1826083;77;21024;-78
2021/01/28 09:17:01;;;;;;;5.80;3.47;;;;;;;4.06;100.00;98276.92;1832733;77;20930;-75
2021/01/28 09:19:33;;;;;;;8.77;4.50;;;;;;;4.07;100.00;98291.95;1835109;77;21447;-80
2021/01/28 09:22:05;;;;;;;6.20;3.67;;;;;;;4.08;100.00;98278.41;1856087;77;20989;-76
2021/01/28 09:24:46;;;;;;;11.23;4.77;;;;;;;4.10;100.00;98280.91;1836042;77;21339;-79
2021/01/28 09:27:29;;;;;;;9.63;4.93;;;;;;;4.10;100.00;98272.38;1781764;80;21626;-77
2021/01/28 09:30:20;;;;;;;7.80;4.10;;;;;;;4.11;100.00;98283.41;1840164;77;21056;-74
2021/01/28 09:32:55;;;;;;;4.37;3.07;;;;;;;4.11;100.00;98253.98;1741415;80;21315;-71
2021/01/28 09:35:25;;;;;;;5.60;3.00;;;;;;;4.10;100.00;98257.66;1741804;81;21016;-77
2021/01/28 09:38:09;;;;;;;5.63;3.07;;;;;;;4.12;100.00;98244.94;1845394;76;26601;-76
2021/01/28 09:40:43;;;;;;;6.27;3.03;;;;;;;4.12;100.00;98246.79;1812281;79;21026;-77
2021/01/28 09:43:31;;;;;;;;;;;;;;;4.15;100.00;98233.08;1772143;81;21094;-77
2021/01/28 09:46:20;;;;;;;6.47;3.87;;;;;;;4.19;100.00;98221.01;1769973;81;20140;-77
2021/01/28 09:48:55;;;;;;;6.53;3.10;;;;;;;4.22;100.00;98216.66;1771032;81;20952;-77
2021/01/28 09:51:28;;;;;;;10.77;5.53;;;;;;;4.30;100.00;98235.83;1769921;81;21055;-76
2021/01/28 09:54:17;;;;;;;4.07;2.80;;;;;;;4.38;100.00;98223.25;1845778;76;27195;-79
2021/01/28 09:56:46;;;;;;;7.13;3.30;;;;;;;4.40;100.00;98219.06;1813592;78;21003;-74
2021/01/28 09:59:15;;;;;;;5.70;3.23;;;;;;;4.46;100.00;98224.20;1747253;82;21303;-77
2021/01/28 10:01:44;;;;;;;5.90;2.70;;;;;;;4.50;100.00;98246.44;1769758;81;21021;-76
2021/01/28 10:04:13;;;;;;;7.07;2.50;;;;;;;4.54;100.00;98249.08;1777888;80;21605;-71
2021/01/28 10:06:41;;;;;;;5.10;2.37;;;;;;;4.56;100.00;98252.41;1746502;82;21148;-74
2021/01/28 10:09:12;;;;;;;5.93;2.83;;;;;;;4.54;100.00;98250.42;1754292;81;21600;-74
2021/01/28 10:11:40;;;;;;;5.27;2.83;;;;;;;4.51;100.00;98252.62;1794615;80;21659;-73
2021/01/28 10:14:08;;;;;;;4.10;2.50;;;;;;;4.48;100.00;98253.81;1771298;81;21058;-74
2021/01/28 10:16:36;;;;;;;4.67;2.83;;;;;;;4.48;100.00;98243.59;1775378;80;21025;-77
2021/01/28 10:19:04;;;;;;;5.53;2.97;;;;;;;4.45;100.00;98226.06;1778022;78;20941;-74
2021/01/28 10:21:32;;;;;;;4.07;2.67;;;;;;;4.43;100.00;98217.89;1779507;78;21041;-73
2021/01/28 10:24:00;;;;;;;2.87;1.77;;;;;;;4.41;100.00;98210.52;1776382;78;21787;-73
2021/01/28 10:26:28;;;;;;;4.73;2.77;;;;;;;4.43;100.00;98208.02;1760447;80;20984;-77
2021/01/28 10:28:56;;;;;;;8.43;3.80;;;;;;;4.47;100.00;98193.26;1758816;81;21035;-74
2021/01/28 10:31:24;;;;;;;8.47;3.67;;;;;;;4.51;100.00;98182.52;1732176;80;20991;-76
2021/01/28 10:33:52;;;;;;;2.20;1.87;;;;;;;4.56;100.00;98181.99;1735616;82;21072;-75
2021/01/28 10:36:20;;;;;;;4.93;2.50;;;;;;;4.58;100.00;98198.70;1740907;82;21126;-75
2021/01/28 10:38:48;;;;;;;4.93;2.23;;;;;;;4.63;100.00;98211.56;1758717;81;21024;-75
2021/01/28 10:41:17;;;;;;;3.67;2.40;;;;;;;4.67;100.00;98228.42;1735719;82;21060;-74
2021/01/28 10:43:44;;;;;;;1.70;1.53;;;;;;;4.75;100.00;98208.80;1740889;82;21601;-73
2021/01/28 10:46:12;;;;;;;2.53;1.93;;;;;;;4.84;100.00;98210.41;1758904;81;20925;-77
2021/01/28 10:48:44;;;;;;;3.13;1.67;;;;;;;4.89;100.00;98201.84;1758779;81;22067;-73
2021/01/28 10:51:12;;;;;;;4.17;1.93;;;;;;;4.86;100.00;98206.21;1735705;81;21083;-75
2021/01/28 10:53:40;;;;;;;3.63;2.13;;;;;;;4.85;100.00;98213.42;1747806;81;21633;-73
2021/01/28 10:56:08;;;;;;;3.57;1.80;;;;;;;4.83;100.00;98209.23;1759447;81;20994;-73
2021/01/28 10:58:36;;;;;;;1.83;1.73;;;;;;;4.79;100.00;98212.78;1754787;81;21092;-73
2021/01/28 11:01:04;;;;;;;1.50;1.40;;;;;;;4.73;100.00;98218.86;1765450;81;21412;-77
2021/01/28 11:03:34;;;;;;;2.67;2.07;;;;;;;4.68;100.00;98235.97;1765726;81;21135;-77
2021/01/28 11:06:03;;;;;;;1.97;1.80;;;;;;;4.60;100.00;98227.46;1765443;81;21577;-78
2021/01/28 11:08:30;;;;;;;5.00;2.30;;;;;;;4.56;100.00;98216.79;1765881;81;21431;-80
2021/01/28 11:10:59;;;;;;;3.37;2.50;;;;;;;4.51;100.00;98219.16;1765577;81;20961;-79
2021/01/28 11:13:27;;;;;;;3.30;1.70;;;;;;;4.45;100.00;98214.02;1751650;81;21212;-80
2021/01/28 11:15:55;;;;;;;1.20;1.10;;;;;;;4.41;100.00;98206.02;1741417;81;20973;-83
2021/01/28 11:18:24;;;;;;;1.60;1.50;;;;;;;4.36;100.00;98223.93;1745371;81;21564;-84
2021/01/28 11:20:53;;;;;;;3.40;1.83;;;;;;;4.32;100.00;98238.69;1744600;81;20941;-80
2021/01/28 11:23:21;;;;;;;2.80;2.00;;;;;;;4.30;100.00;98217.96;1752720;81;21396;-86
2021/01/28 11:25:51;;;;;;;2.60;1.93;;;;;;;4.30;100.00;98238.51;1756673;81;21355;-81
2021/01/28 11:28:19;;;;;;;3.90;2.57;;;;;;;4.27;100.00;98231.68;1762291;81;20989;-78
2021/01/28 11:30:47;;;;;;;2.40;1.93;;;;;;;4.23;100.00;98244.23;1759208;79;20969;-80
2021/01/28 11:33:15;;;;;;;3.70;2.47;;;;;;;4.20;100.00;98273.52;1721492;81;21578;-81
2021/01/28 11:35:43;;;;;;;5.27;2.97;;;;;;;4.18;100.00;98273.69;1756443;79;20934;-78
2021/01/28 11:38:13;;;;;;;6.13;2.83;;;;;;;4.17;100.00;98281.37;1751243;81;21658;-74
2021/01/28 11:40:41;;;;;;;4.07;2.30;;;;;;;4.17;100.00;98285.38;1765416;81;20981;-75
2021/01/28 11:43:09;;;;;;;2.10;1.90;;;;;;;4.14;100.00;98281.73;1765385;81;20989;-75
2021/01/28 11:45:39;;;;;;;1.97;1.83;;;;;;;4.13;100.00;98282.73;1765211;81;21545;-75
2021/01/28 11:48:08;;;;;;;3.30;2.17;;;;;;;4.12;100.00;98281.56;1765484;81;21585;-76
2021/01/28 11:50:38;;;;;;;2.53;1.97;;;;;;;4.13;100.00;98291.27;1765321;81;21440;-74
2021/01/28 11:53:06;;;;;;;3.33;2.17;;;;;;;4.08;100.00;98285.09;1765059;80;21657;-73
2021/01/28 11:55:35;;;;;;;4.43;1.93;;;;;;;4.07;100.00;98266.53;1765440;81;21594;-75
2021/01/28 11:58:03;;;;;;;2.33;1.53;;;;;;;4.05;100.00;98254.67;1765335;81;20933;-74
2021/01/28 12:00:31;;;;;;;2.60;1.63;;;;;;;4.05;100.00;98269.89;1765002;81;20980;-76
2021/01/28 12:02:59;;;;;;;3.13;2.27;;;;;;;4.06;100.00;98272.39;1765464;81;22180;-76
2021/01/28 12:05:28;;;;;;;1.73;1.37;;;;;;;4.08;100.00;98274.39;1765209;81;21056;-73
2021/01/28 12:07:57;;;;;;;3.87;2.30;;;;;;;4.08;100.00;98273.05;1765386;81;21170;-73
2021/01/28 12:10:26;;;;;;;3.10;2.07;;;;;;;4.07;100.00;98276.75;1765067;81;20950;-76
2021/01/28 12:12:54;;;;;;;1.73;1.63;;;;;;;4.04;100.00;98269.55;1757006;81;21008;-71
2021/01/28 12:15:21;;;;;;;3.37;1.90;;;;;;;3.99;100.00;98280.78;1771658;80;21280;-69
2021/01/28 12:17:50;;;;;;;2.03;1.83;;;;;;;3.92;100.00;98263.24;1706686;82;21575;-70
2021/01/28 12:20:22;;;;;;;1.13;1.13;;;;;;;3.85;100.00;98236.86;1770893;81;21012;-69